sensor_id;sensor_type;location;lat;lon;timestamp;P1;durP1;ratioP1;P2;durP2;ratioP2
5052;SDS011;2545;50.892;5.740;2023-09-18T00:01:03;10.30;;;6.40;;
5052;SDS011;2545;50.892;5.740;2023-09-18T00:03:29;16.63;;;7.57;;
5052;SDS011;2545;50.892;5.740;2023-09-18T00:05:54;17.20;;;7.40;;
5052;SDS011;2545;50.892;5.740;2023-09-18T00:08:20;10.73;;;6.80;;
5052;SDS011;2545;50.892;5.740;2023-09-18T00:10:49;14.50;;;6.70;;
5052;SDS011;2545;50.892;5.740;2023-09-18T00:13:18;11.63;;;7.07;;
5052;SDS011;2545;50.892;5.740;2023-09-18T00:15:44;17.03;;;7.37;;
5052;SDS011;2545;50.892;5.740;2023-09-18T00:18:11;10.90;;;6.93;;
5052;SDS011;2545;50.892;5.740;2023-09-18T00:20:38;22.63;;;7.73;;
5052;SDS011;2545;50.892;5.740;2023-09-18T00:23:04;12.00;;;7.50;;
5052;SDS011;2545;50.892;5.740;2023-09-18T00:25:29;14.83;;;7.67;;
5052;SDS011;2545;50.892;5.740;2023-09-18T00:27:55;12.23;;;6.17;;
5052;SDS011;2545;50.892;5.740;2023-09-18T00:30:21;23.53;;;7.30;;
5052;SDS011;2545;50.892;5.740;2023-09-18T00:32:46;26.20;;;7.23;;
5052;SDS011;2545;50.892;5.740;2023-09-18T00:35:15;13.17;;;6.67;;
5052;SDS011;2545;50.892;5.740;2023-09-18T00:37:40;17.67;;;7.60;;
5052;SDS011;2545;50.892;5.740;2023-09-18T00:40:06;17.10;;;7.47;;
5052;SDS011;2545;50.892;5.740;2023-09-18T00:42:32;12.73;;;7.43;;
5052;SDS011;2545;50.892;5.740;2023-09-18T00:44:57;18.23;;;8.33;;
5052;SDS011;2545;50.892;5.740;2023-09-18T00:47:23;15.17;;;6.43;;
5052;SDS011;2545;50.892;5.740;2023-09-18T00:49:49;12.73;;;6.50;;
5052;SDS011;2545;50.892;5.740;2023-09-18T00:52:16;12.47;;;6.97;;
5052;SDS011;2545;50.892;5.740;2023-09-18T00:54:43;21.40;;;7.17;;
5052;SDS011;2545;50.892;5.740;2023-09-18T00:57:10;20.23;;;7.70;;
5052;SDS011;2545;50.892;5.740;2023-09-18T00:59:36;11.07;;;6.83;;
5052;SDS011;2545;50.892;5.740;2023-09-18T01:02:02;13.83;;;8.57;;
5052;SDS011;2545;50.892;5.740;2023-09-18T01:04:28;11.03;;;6.97;;
5052;SDS011;2545;50.892;5.740;2023-09-18T01:06:55;18.00;;;7.93;;
5052;SDS011;2545;50.892;5.740;2023-09-18T01:09:23;14.53;;;7.00;;
5052;SDS011;2545;50.892;5.740;2023-09-18T01:11:50;16.07;;;6.97;;
5052;SDS011;2545;50.892;5.740;2023-09-18T01:17:14;10.63;;;6.40;;
5052;SDS011;2545;50.892;5.740;2023-09-18T01:19:45;13.73;;;6.90;;
5052;SDS011;2545;50.892;5.740;2023-09-18T01:22:15;13.73;;;7.27;;
5052;SDS011;2545;50.892;5.740;2023-09-18T01:24:43;17.73;;;7.93;;
5052;SDS011;2545;50.892;5.740;2023-09-18T01:27:10;25.03;;;8.37;;
5052;SDS011;2545;50.892;5.740;2023-09-18T01:29:41;14.40;;;6.90;;
5052;SDS011;2545;50.892;5.740;2023-09-18T01:32:07;16.80;;;7.70;;
5052;SDS011;2545;50.892;5.740;2023-09-18T01:34:34;20.30;;;6.60;;
5052;SDS011;2545;50.892;5.740;2023-09-18T01:37:06;20.70;;;7.00;;
5052;SDS011;2545;50.892;5.740;2023-09-18T01:39:34;18.33;;;7.40;;
5052;SDS011;2545;50.892;5.740;2023-09-18T01:42:01;17.37;;;7.67;;
5052;SDS011;2545;50.892;5.740;2023-09-18T01:44:29;12.37;;;7.50;;
5052;SDS011;2545;50.892;5.740;2023-09-18T01:46:56;12.40;;;6.70;;
5052;SDS011;2545;50.892;5.740;2023-09-18T01:49:26;9.80;;;5.97;;
5052;SDS011;2545;50.892;5.740;2023-09-18T01:52:01;17.63;;;6.23;;
5052;SDS011;2545;50.892;5.740;2023-09-18T01:54:27;20.47;;;8.63;;
5052;SDS011;2545;50.892;5.740;2023-09-18T01:56:53;19.67;;;7.60;;
5052;SDS011;2545;50.892;5.740;2023-09-18T01:59:19;14.27;;;7.10;;
5052;SDS011;2545;50.892;5.740;2023-09-18T02:01:45;19.67;;;6.33;;
5052;SDS011;2545;50.892;5.740;2023-09-18T02:04:10;20.43;;;7.43;;
5052;SDS011;2545;50.892;5.740;2023-09-18T02:06:35;23.70;;;6.97;;
5052;SDS011;2545;50.892;5.740;2023-09-18T02:09:01;14.50;;;6.40;;
5052;SDS011;2545;50.892;5.740;2023-09-18T02:11:28;21.80;;;7.20;;
5052;SDS011;2545;50.892;5.740;2023-09-18T02:13:54;21.27;;;6.63;;
5052;SDS011;2545;50.892;5.740;2023-09-18T02:16:19;15.20;;;7.67;;
5052;SDS011;2545;50.892;5.740;2023-09-18T02:18:48;13.17;;;6.90;;
5052;SDS011;2545;50.892;5.740;2023-09-18T02:21:20;20.43;;;7.20;;
5052;SDS011;2545;50.892;5.740;2023-09-18T02:23:48;19.77;;;7.60;;
5052;SDS011;2545;50.892;5.740;2023-09-18T02:26:15;15.13;;;6.50;;
5052;SDS011;2545;50.892;5.740;2023-09-18T02:28:41;14.90;;;6.50;;
5052;SDS011;2545;50.892;5.740;2023-09-18T02:31:06;20.33;;;6.67;;
5052;SDS011;2545;50.892;5.740;2023-09-18T02:33:33;19.47;;;7.00;;
5052;SDS011;2545;50.892;5.740;2023-09-18T02:35:58;16.07;;;6.80;;
5052;SDS011;2545;50.892;5.740;2023-09-18T02:38:23;9.77;;;6.43;;
5052;SDS011;2545;50.892;5.740;2023-09-18T02:40:49;18.47;;;6.93;;
5052;SDS011;2545;50.892;5.740;2023-09-18T02:43:15;23.83;;;8.37;;
5052;SDS011;2545;50.892;5.740;2023-09-18T02:45:40;20.13;;;7.37;;
5052;SDS011;2545;50.892;5.740;2023-09-18T02:48:05;19.60;;;7.47;;
5052;SDS011;2545;50.892;5.740;2023-09-18T02:50:31;23.60;;;7.03;;
5052;SDS011;2545;50.892;5.740;2023-09-18T02:52:56;17.53;;;7.27;;
5052;SDS011;2545;50.892;5.740;2023-09-18T02:55:21;19.60;;;7.90;;
5052;SDS011;2545;50.892;5.740;2023-09-18T02:57:47;14.13;;;6.87;;
5052;SDS011;2545;50.892;5.740;2023-09-18T03:00:12;15.03;;;6.87;;
5052;SDS011;2545;50.892;5.740;2023-09-18T03:02:38;16.17;;;6.63;;
5052;SDS011;2545;50.892;5.740;2023-09-18T03:05:03;15.63;;;6.03;;
5052;SDS011;2545;50.892;5.740;2023-09-18T03:07:29;13.73;;;6.10;;
5052;SDS011;2545;50.892;5.740;2023-09-18T03:09:55;18.03;;;7.40;;
5052;SDS011;2545;50.892;5.740;2023-09-18T03:12:20;27.80;;;7.40;;
5052;SDS011;2545;50.892;5.740;2023-09-18T03:14:47;21.83;;;6.23;;
5052;SDS011;2545;50.892;5.740;2023-09-18T03:17:12;12.47;;;6.43;;
5052;SDS011;2545;50.892;5.740;2023-09-18T03:19:38;9.50;;;5.27;;
5052;SDS011;2545;50.892;5.740;2023-09-18T03:22:03;20.63;;;5.57;;
5052;SDS011;2545;50.892;5.740;2023-09-18T03:24:28;14.43;;;5.97;;
5052;SDS011;2545;50.892;5.740;2023-09-18T03:26:54;13.40;;;5.53;;
5052;SDS011;2545;50.892;5.740;2023-09-18T03:29:19;14.40;;;5.67;;
5052;SDS011;2545;50.892;5.740;2023-09-18T03:31:44;13.93;;;6.07;;
5052;SDS011;2545;50.892;5.740;2023-09-18T03:34:10;12.20;;;4.77;;
5052;SDS011;2545;50.892;5.740;2023-09-18T03:36:35;20.13;;;6.60;;
5052;SDS011;2545;50.892;5.740;2023-09-18T03:39:02;10.47;;;5.43;;
5052;SDS011;2545;50.892;5.740;2023-09-18T03:41:28;10.70;;;5.60;;
5052;SDS011;2545;50.892;5.740;2023-09-18T03:43:58;21.77;;;5.23;;
5052;SDS011;2545;50.892;5.740;2023-09-18T03:46:24;14.13;;;4.70;;
5052;SDS011;2545;50.892;5.740;2023-09-18T03:48:49;11.00;;;4.23;;
5052;SDS011;2545;50.892;5.740;2023-09-18T03:51:15;13.37;;;4.40;;
5052;SDS011;2545;50.892;5.740;2023-09-18T03:53:40;18.17;;;4.53;;
5052;SDS011;2545;50.892;5.740;2023-09-18T03:56:06;9.57;;;3.60;;
5052;SDS011;2545;50.892;5.740;2023-09-18T03:58:31;8.03;;;3.70;;
5052;SDS011;2545;50.892;5.740;2023-09-18T04:00:57;9.07;;;3.97;;
5052;SDS011;2545;50.892;5.740;2023-09-18T04:03:22;14.97;;;4.03;;
5052;SDS011;2545;50.892;5.740;2023-09-18T04:05:47;9.90;;;4.00;;
5052;SDS011;2545;50.892;5.740;2023-09-18T04:08:13;8.20;;;3.90;;
5052;SDS011;2545;50.892;5.740;2023-09-18T04:10:38;5.90;;;3.50;;
5052;SDS011;2545;50.892;5.740;2023-09-18T04:13:03;10.20;;;3.37;;
5052;SDS011;2545;50.892;5.740;2023-09-18T04:15:29;5.87;;;3.37;;
5052;SDS011;2545;50.892;5.740;2023-09-18T04:17:57;19.00;;;3.47;;
5052;SDS011;2545;50.892;5.740;2023-09-18T04:20:23;6.50;;;3.57;;
5052;SDS011;2545;50.892;5.740;2023-09-18T04:23:16;7.80;;;4.00;;
5052;SDS011;2545;50.892;5.740;2023-09-18T04:25:44;28.23;;;4.10;;
5052;SDS011;2545;50.892;5.740;2023-09-18T04:28:11;9.20;;;3.60;;
5052;SDS011;2545;50.892;5.740;2023-09-18T04:30:37;7.53;;;3.77;;
5052;SDS011;2545;50.892;5.740;2023-09-18T04:33:03;9.93;;;3.43;;
5052;SDS011;2545;50.892;5.740;2023-09-18T04:35:28;8.70;;;3.60;;
5052;SDS011;2545;50.892;5.740;2023-09-18T04:37:56;6.00;;;2.93;;
5052;SDS011;2545;50.892;5.740;2023-09-18T04:40:21;4.90;;;3.37;;
5052;SDS011;2545;50.892;5.740;2023-09-18T04:42:48;4.37;;;2.97;;
5052;SDS011;2545;50.892;5.740;2023-09-18T04:45:14;6.30;;;2.90;;
5052;SDS011;2545;50.892;5.740;2023-09-18T04:47:41;12.43;;;3.80;;
5052;SDS011;2545;50.892;5.740;2023-09-18T04:50:06;3.50;;;2.50;;
5052;SDS011;2545;50.892;5.740;2023-09-18T04:52:34;4.77;;;2.80;;
5052;SDS011;2545;50.892;5.740;2023-09-18T04:55:00;7.00;;;3.43;;
5052;SDS011;2545;50.892;5.740;2023-09-18T04:57:26;10.97;;;2.57;;
5052;SDS011;2545;50.892;5.740;2023-09-18T04:59:51;10.93;;;3.43;;
5052;SDS011;2545;50.892;5.740;2023-09-18T05:02:16;6.23;;;2.70;;
5052;SDS011;2545;50.892;5.740;2023-09-18T05:04:42;5.80;;;2.90;;
5052;SDS011;2545;50.892;5.740;2023-09-18T05:07:07;5.13;;;2.80;;
5052;SDS011;2545;50.892;5.740;2023-09-18T05:09:32;10.47;;;3.20;;
5052;SDS011;2545;50.892;5.740;2023-09-18T05:11:59;12.27;;;2.30;;
5052;SDS011;2545;50.892;5.740;2023-09-18T05:14:24;4.07;;;2.63;;
5052;SDS011;2545;50.892;5.740;2023-09-18T05:16:50;7.33;;;3.00;;
5052;SDS011;2545;50.892;5.740;2023-09-18T05:19:15;7.87;;;3.03;;
5052;SDS011;2545;50.892;5.740;2023-09-18T05:21:40;9.33;;;3.73;;
5052;SDS011;2545;50.892;5.740;2023-09-18T05:24:07;13.87;;;3.27;;
5052;SDS011;2545;50.892;5.740;2023-09-18T05:26:32;3.10;;;2.40;;
5052;SDS011;2545;50.892;5.740;2023-09-18T05:28:58;5.73;;;2.00;;
5052;SDS011;2545;50.892;5.740;2023-09-18T05:31:24;8.60;;;2.43;;
5052;SDS011;2545;50.892;5.740;2023-09-18T05:33:49;8.73;;;3.03;;
5052;SDS011;2545;50.892;5.740;2023-09-18T05:36:15;4.83;;;2.40;;
5052;SDS011;2545;50.892;5.740;2023-09-18T05:38:41;12.43;;;3.40;;
5052;SDS011;2545;50.892;5.740;2023-09-18T05:41:08;7.53;;;2.73;;
5052;SDS011;2545;50.892;5.740;2023-09-18T05:43:34;7.50;;;2.60;;
5052;SDS011;2545;50.892;5.740;2023-09-18T05:46:00;3.57;;;2.43;;
5052;SDS011;2545;50.892;5.740;2023-09-18T05:48:26;10.17;;;3.07;;
5052;SDS011;2545;50.892;5.740;2023-09-18T05:50:51;8.47;;;2.93;;
5052;SDS011;2545;50.892;5.740;2023-09-18T05:53:18;11.23;;;3.40;;
5052;SDS011;2545;50.892;5.740;2023-09-18T05:55:44;7.07;;;2.67;;
5052;SDS011;2545;50.892;5.740;2023-09-18T05:58:10;12.37;;;3.17;;
5052;SDS011;2545;50.892;5.740;2023-09-18T06:00:35;13.60;;;3.47;;
5052;SDS011;2545;50.892;5.740;2023-09-18T06:03:01;5.40;;;3.37;;
5052;SDS011;2545;50.892;5.740;2023-09-18T06:05:27;8.13;;;3.10;;
5052;SDS011;2545;50.892;5.740;2023-09-18T06:07:53;6.77;;;2.97;;
5052;SDS011;2545;50.892;5.740;2023-09-18T06:10:18;5.40;;;2.80;;
5052;SDS011;2545;50.892;5.740;2023-09-18T06:12:43;12.37;;;2.77;;
5052;SDS011;2545;50.892;5.740;2023-09-18T06:15:10;6.30;;;3.20;;
5052;SDS011;2545;50.892;5.740;2023-09-18T06:17:40;14.13;;;3.23;;
5052;SDS011;2545;50.892;5.740;2023-09-18T06:20:07;9.93;;;3.30;;
5052;SDS011;2545;50.892;5.740;2023-09-18T06:22:34;5.00;;;3.13;;
5052;SDS011;2545;50.892;5.740;2023-09-18T06:25:00;6.60;;;2.50;;
5052;SDS011;2545;50.892;5.740;2023-09-18T06:27:25;4.00;;;2.63;;
5052;SDS011;2545;50.892;5.740;2023-09-18T06:29:50;13.27;;;3.10;;
5052;SDS011;2545;50.892;5.740;2023-09-18T06:32:16;7.27;;;2.60;;
5052;SDS011;2545;50.892;5.740;2023-09-18T06:34:41;13.03;;;3.40;;
5052;SDS011;2545;50.892;5.740;2023-09-18T06:37:09;4.73;;;2.80;;
5052;SDS011;2545;50.892;5.740;2023-09-18T06:39:37;5.07;;;2.13;;
5052;SDS011;2545;50.892;5.740;2023-09-18T06:42:02;10.73;;;2.83;;
5052;SDS011;2545;50.892;5.740;2023-09-18T06:44:28;4.30;;;2.20;;
5052;SDS011;2545;50.892;5.740;2023-09-18T06:46:53;4.57;;;2.50;;
5052;SDS011;2545;50.892;5.740;2023-09-18T06:49:19;5.33;;;2.63;;
5052;SDS011;2545;50.892;5.740;2023-09-18T06:51:44;4.03;;;2.33;;
5052;SDS011;2545;50.892;5.740;2023-09-18T06:54:10;5.57;;;2.80;;
5052;SDS011;2545;50.892;5.740;2023-09-18T06:56:35;3.90;;;2.10;;
5052;SDS011;2545;50.892;5.740;2023-09-18T06:59:00;8.00;;;2.60;;
5052;SDS011;2545;50.892;5.740;2023-09-18T07:01:26;6.37;;;2.63;;
5052;SDS011;2545;50.892;5.740;2023-09-18T07:03:53;8.47;;;2.80;;
5052;SDS011;2545;50.892;5.740;2023-09-18T07:06:18;10.20;;;2.63;;
5052;SDS011;2545;50.892;5.740;2023-09-18T07:08:45;3.40;;;2.27;;
5052;SDS011;2545;50.892;5.740;2023-09-18T07:11:11;10.00;;;2.80;;
5052;SDS011;2545;50.892;5.740;2023-09-18T07:13:37;7.43;;;2.57;;
5052;SDS011;2545;50.892;5.740;2023-09-18T07:16:03;6.03;;;2.73;;
5052;SDS011;2545;50.892;5.740;2023-09-18T07:18:28;5.60;;;2.20;;
5052;SDS011;2545;50.892;5.740;2023-09-18T07:20:53;3.13;;;2.23;;
5052;SDS011;2545;50.892;5.740;2023-09-18T07:23:19;5.50;;;2.47;;
5052;SDS011;2545;50.892;5.740;2023-09-18T07:25:47;9.23;;;2.30;;
5052;SDS011;2545;50.892;5.740;2023-09-18T07:28:12;6.00;;;2.30;;
5052;SDS011;2545;50.892;5.740;2023-09-18T07:30:42;4.53;;;2.40;;
5052;SDS011;2545;50.892;5.740;2023-09-18T07:33:08;5.77;;;2.80;;
5052;SDS011;2545;50.892;5.740;2023-09-18T07:35:35;6.67;;;2.60;;
5052;SDS011;2545;50.892;5.740;2023-09-18T07:38:00;11.57;;;3.03;;
5052;SDS011;2545;50.892;5.740;2023-09-18T07:40:25;7.87;;;2.37;;
5052;SDS011;2545;50.892;5.740;2023-09-18T07:42:50;6.30;;;2.70;;
5052;SDS011;2545;50.892;5.740;2023-09-18T07:45:16;3.67;;;2.20;;
5052;SDS011;2545;50.892;5.740;2023-09-18T07:47:42;13.80;;;2.40;;
5052;SDS011;2545;50.892;5.740;2023-09-18T07:50:08;13.33;;;2.37;;
5052;SDS011;2545;50.892;5.740;2023-09-18T07:52:33;7.17;;;2.53;;
5052;SDS011;2545;50.892;5.740;2023-09-18T07:54:58;7.10;;;2.73;;
5052;SDS011;2545;50.892;5.740;2023-09-18T07:57:25;7.60;;;2.60;;
5052;SDS011;2545;50.892;5.740;2023-09-18T07:59:53;7.33;;;3.27;;
5052;SDS011;2545;50.892;5.740;2023-09-18T08:02:18;4.70;;;2.90;;
5052;SDS011;2545;50.892;5.740;2023-09-18T08:04:44;3.23;;;1.77;;
5052;SDS011;2545;50.892;5.740;2023-09-18T08:07:09;6.40;;;2.63;;
5052;SDS011;2545;50.892;5.740;2023-09-18T08:09:35;5.07;;;2.37;;
5052;SDS011;2545;50.892;5.740;2023-09-18T08:12:02;3.57;;;2.57;;
5052;SDS011;2545;50.892;5.740;2023-09-18T08:14:34;8.13;;;1.93;;
5052;SDS011;2545;50.892;5.740;2023-09-18T08:17:01;6.23;;;2.33;;
5052;SDS011;2545;50.892;5.740;2023-09-18T08:19:27;7.53;;;2.30;;
5052;SDS011;2545;50.892;5.740;2023-09-18T08:21:53;12.40;;;2.83;;
5052;SDS011;2545;50.892;5.740;2023-09-18T08:24:19;5.43;;;2.07;;
5052;SDS011;2545;50.892;5.740;2023-09-18T08:26:45;8.33;;;2.77;;
5052;SDS011;2545;50.892;5.740;2023-09-18T08:29:11;10.90;;;2.50;;
5052;SDS011;2545;50.892;5.740;2023-09-18T08:31:36;4.93;;;2.30;;
5052;SDS011;2545;50.892;5.740;2023-09-18T08:34:01;4.60;;;2.23;;
5052;SDS011;2545;50.892;5.740;2023-09-18T08:36:27;4.33;;;2.87;;
5052;SDS011;2545;50.892;5.740;2023-09-18T08:38:55;3.30;;;2.37;;
5052;SDS011;2545;50.892;5.740;2023-09-18T08:41:20;5.80;;;2.03;;
5052;SDS011;2545;50.892;5.740;2023-09-18T08:43:50;3.63;;;2.53;;
5052;SDS011;2545;50.892;5.740;2023-09-18T08:46:17;9.10;;;2.53;;
5052;SDS011;2545;50.892;5.740;2023-09-18T08:48:43;5.93;;;2.67;;
5052;SDS011;2545;50.892;5.740;2023-09-18T08:51:10;4.90;;;2.90;;
5052;SDS011;2545;50.892;5.740;2023-09-18T08:53:36;6.77;;;2.40;;
5052;SDS011;2545;50.892;5.740;2023-09-18T08:56:02;5.43;;;2.17;;
5052;SDS011;2545;50.892;5.740;2023-09-18T08:58:36;6.50;;;2.10;;
5052;SDS011;2545;50.892;5.740;2023-09-18T09:01:04;4.93;;;2.63;;
5052;SDS011;2545;50.892;5.740;2023-09-18T09:03:31;4.70;;;2.40;;
5052;SDS011;2545;50.892;5.740;2023-09-18T09:05:56;7.43;;;2.73;;
5052;SDS011;2545;50.892;5.740;2023-09-18T09:08:26;4.33;;;2.57;;
5052;SDS011;2545;50.892;5.740;2023-09-18T09:10:52;8.23;;;2.10;;
5052;SDS011;2545;50.892;5.740;2023-09-18T09:13:18;5.37;;;2.07;;
5052;SDS011;2545;50.892;5.740;2023-09-18T09:15:44;6.23;;;2.87;;
5052;SDS011;2545;50.892;5.740;2023-09-18T09:18:12;5.67;;;3.00;;
5052;SDS011;2545;50.892;5.740;2023-09-18T09:20:39;3.80;;;2.63;;
5052;SDS011;2545;50.892;5.740;2023-09-18T09:23:07;2.90;;;2.00;;
5052;SDS011;2545;50.892;5.740;2023-09-18T09:25:34;5.30;;;2.43;;
5052;SDS011;2545;50.892;5.740;2023-09-18T09:28:00;10.97;;;3.00;;
5052;SDS011;2545;50.892;5.740;2023-09-18T09:30:30;8.03;;;3.00;;
5052;SDS011;2545;50.892;5.740;2023-09-18T09:32:57;7.60;;;2.80;;
5052;SDS011;2545;50.892;5.740;2023-09-18T09:35:24;4.47;;;2.67;;
5052;SDS011;2545;50.892;5.740;2023-09-18T09:37:56;10.17;;;2.93;;
5052;SDS011;2545;50.892;5.740;2023-09-18T09:40:26;5.23;;;2.40;;
5052;SDS011;2545;50.892;5.740;2023-09-18T09:42:53;8.43;;;2.70;;
5052;SDS011;2545;50.892;5.740;2023-09-18T09:45:25;5.07;;;2.33;;
5052;SDS011;2545;50.892;5.740;2023-09-18T09:47:55;6.23;;;2.40;;
5052;SDS011;2545;50.892;5.740;2023-09-18T09:50:21;8.73;;;2.50;;
5052;SDS011;2545;50.892;5.740;2023-09-18T09:52:49;4.80;;;2.50;;
5052;SDS011;2545;50.892;5.740;2023-09-18T09:55:20;11.87;;;2.73;;
5052;SDS011;2545;50.892;5.740;2023-09-18T09:58:11;4.53;;;2.10;;
5052;SDS011;2545;50.892;5.740;2023-09-18T10:00:43;14.40;;;3.40;;
5052;SDS011;2545;50.892;5.740;2023-09-18T10:03:13;5.60;;;2.50;;
5052;SDS011;2545;50.892;5.740;2023-09-18T10:05:42;6.80;;;2.07;;
5052;SDS011;2545;50.892;5.740;2023-09-18T10:08:13;3.00;;;1.90;;
5052;SDS011;2545;50.892;5.740;2023-09-18T10:10:47;8.60;;;2.73;;
5052;SDS011;2545;50.892;5.740;2023-09-18T10:13:29;4.73;;;2.20;;
5052;SDS011;2545;50.892;5.740;2023-09-18T10:15:58;3.67;;;2.20;;
5052;SDS011;2545;50.892;5.740;2023-09-18T10:21:02;3.43;;;2.10;;
5052;SDS011;2545;50.892;5.740;2023-09-18T10:23:46;4.23;;;2.00;;
5052;SDS011;2545;50.892;5.740;2023-09-18T10:26:22;4.20;;;2.13;;
5052;SDS011;2545;50.892;5.740;2023-09-18T10:28:51;5.00;;;2.20;;
5052;SDS011;2545;50.892;5.740;2023-09-18T10:31:21;4.63;;;2.10;;
5052;SDS011;2545;50.892;5.740;2023-09-18T10:33:47;2.77;;;2.23;;
5052;SDS011;2545;50.892;5.740;2023-09-18T10:36:15;14.03;;;2.57;;
5052;SDS011;2545;50.892;5.740;2023-09-18T10:38:42;6.83;;;2.20;;
5052;SDS011;2545;50.892;5.740;2023-09-18T10:41:14;8.50;;;2.13;;
5052;SDS011;2545;50.892;5.740;2023-09-18T10:43:42;4.93;;;2.40;;
5052;SDS011;2545;50.892;5.740;2023-09-18T10:46:08;5.70;;;2.07;;
5052;SDS011;2545;50.892;5.740;2023-09-18T10:48:34;6.50;;;2.40;;
5052;SDS011;2545;50.892;5.740;2023-09-18T10:51:00;3.80;;;2.30;;
5052;SDS011;2545;50.892;5.740;2023-09-18T10:53:31;3.83;;;2.40;;
5052;SDS011;2545;50.892;5.740;2023-09-18T10:55:57;5.20;;;1.97;;
5052;SDS011;2545;50.892;5.740;2023-09-18T10:58:23;6.83;;;2.73;;
5052;SDS011;2545;50.892;5.740;2023-09-18T11:00:50;8.73;;;2.60;;
5052;SDS011;2545;50.892;5.740;2023-09-18T11:03:16;8.40;;;2.50;;
5052;SDS011;2545;50.892;5.740;2023-09-18T11:05:43;5.73;;;2.00;;
5052;SDS011;2545;50.892;5.740;2023-09-18T11:08:26;5.33;;;2.30;;
5052;SDS011;2545;50.892;5.740;2023-09-18T11:11:40;4.43;;;2.40;;
5052;SDS011;2545;50.892;5.740;2023-09-18T11:13:51;5.03;;;2.10;;
5052;SDS011;2545;50.892;5.740;2023-09-18T11:18:51;2.57;;;2.10;;
5052;SDS011;2545;50.892;5.740;2023-09-18T11:21:19;3.60;;;2.27;;
5052;SDS011;2545;50.892;5.740;2023-09-18T11:23:57;2.87;;;2.00;;
5052;SDS011;2545;50.892;5.740;2023-09-18T11:26:31;3.30;;;2.13;;
5052;SDS011;2545;50.892;5.740;2023-09-18T11:29:04;3.50;;;1.80;;
5052;SDS011;2545;50.892;5.740;2023-09-18T11:36:48;6.10;;;2.07;;
5052;SDS011;2545;50.892;5.740;2023-09-18T11:39:14;3.97;;;2.17;;
5052;SDS011;2545;50.892;5.740;2023-09-18T11:42:11;3.17;;;1.80;;
5052;SDS011;2545;50.892;5.740;2023-09-18T11:44:53;3.90;;;2.10;;
5052;SDS011;2545;50.892;5.740;2023-09-18T11:47:22;3.80;;;2.27;;
5052;SDS011;2545;50.892;5.740;2023-09-18T11:49:58;5.23;;;2.27;;
5052;SDS011;2545;50.892;5.740;2023-09-18T11:52:25;3.63;;;1.90;;
5052;SDS011;2545;50.892;5.740;2023-09-18T11:54:52;5.47;;;2.13;;
5052;SDS011;2545;50.892;5.740;2023-09-18T11:57:20;8.73;;;2.33;;
5052;SDS011;2545;50.892;5.740;2023-09-18T11:59:46;3.80;;;2.23;;
5052;SDS011;2545;50.892;5.740;2023-09-18T12:02:32;2.87;;;1.90;;
5052;SDS011;2545;50.892;5.740;2023-09-18T12:05:21;4.60;;;2.23;;
5052;SDS011;2545;50.892;5.740;2023-09-18T12:07:46;6.93;;;2.40;;
5052;SDS011;2545;50.892;5.740;2023-09-18T12:10:13;7.07;;;2.03;;
5052;SDS011;2545;50.892;5.740;2023-09-18T12:12:41;7.20;;;2.10;;
5052;SDS011;2545;50.892;5.740;2023-09-18T12:15:10;4.00;;;2.40;;
5052;SDS011;2545;50.892;5.740;2023-09-18T12:17:37;2.87;;;2.10;;
5052;SDS011;2545;50.892;5.740;2023-09-18T12:20:02;4.80;;;2.70;;
5052;SDS011;2545;50.892;5.740;2023-09-18T12:22:29;3.53;;;2.17;;
5052;SDS011;2545;50.892;5.740;2023-09-18T12:25:12;4.37;;;2.30;;
5052;SDS011;2545;50.892;5.740;2023-09-18T12:27:43;7.17;;;2.70;;
5052;SDS011;2545;50.892;5.740;2023-09-18T12:30:09;10.23;;;2.87;;
5052;SDS011;2545;50.892;5.740;2023-09-18T12:32:36;5.67;;;2.70;;
5052;SDS011;2545;50.892;5.740;2023-09-18T12:35:02;3.43;;;2.40;;
5052;SDS011;2545;50.892;5.740;2023-09-18T12:37:31;4.53;;;2.00;;
5052;SDS011;2545;50.892;5.740;2023-09-18T12:39:57;5.10;;;2.13;;
5052;SDS011;2545;50.892;5.740;2023-09-18T12:42:22;4.70;;;2.50;;
5052;SDS011;2545;50.892;5.740;2023-09-18T12:44:48;8.47;;;2.57;;
5052;SDS011;2545;50.892;5.740;2023-09-18T12:47:14;5.20;;;2.50;;
5052;SDS011;2545;50.892;5.740;2023-09-18T12:49:40;6.47;;;2.40;;
5052;SDS011;2545;50.892;5.740;2023-09-18T12:52:05;3.53;;;2.70;;
5052;SDS011;2545;50.892;5.740;2023-09-18T12:54:37;6.03;;;2.20;;
5052;SDS011;2545;50.892;5.740;2023-09-18T12:57:04;4.37;;;2.20;;
5052;SDS011;2545;50.892;5.740;2023-09-18T12:59:31;7.53;;;1.63;;
5052;SDS011;2545;50.892;5.740;2023-09-18T13:01:57;3.80;;;2.20;;
5052;SDS011;2545;50.892;5.740;2023-09-18T13:04:22;7.00;;;2.60;;
5052;SDS011;2545;50.892;5.740;2023-09-18T13:07:02;4.60;;;2.03;;
5052;SDS011;2545;50.892;5.740;2023-09-18T13:09:28;5.60;;;2.30;;
5052;SDS011;2545;50.892;5.740;2023-09-18T13:11:57;4.90;;;1.97;;
5052;SDS011;2545;50.892;5.740;2023-09-18T13:14:22;6.70;;;2.50;;
5052;SDS011;2545;50.892;5.740;2023-09-18T13:16:48;6.40;;;2.20;;
5052;SDS011;2545;50.892;5.740;2023-09-18T13:19:14;3.53;;;2.20;;
5052;SDS011;2545;50.892;5.740;2023-09-18T13:21:45;8.90;;;2.70;;
5052;SDS011;2545;50.892;5.740;2023-09-18T13:24:31;3.70;;;2.00;;
5052;SDS011;2545;50.892;5.740;2023-09-18T13:26:58;4.73;;;2.50;;
5052;SDS011;2545;50.892;5.740;2023-09-18T13:29:26;2.10;;;1.90;;
5052;SDS011;2545;50.892;5.740;2023-09-18T13:31:51;4.33;;;2.00;;
5052;SDS011;2545;50.892;5.740;2023-09-18T13:34:17;3.70;;;2.10;;
5052;SDS011;2545;50.892;5.740;2023-09-18T13:36:46;4.50;;;2.10;;
5052;SDS011;2545;50.892;5.740;2023-09-18T13:39:14;7.10;;;2.33;;
5052;SDS011;2545;50.892;5.740;2023-09-18T13:41:43;5.60;;;2.20;;
5052;SDS011;2545;50.892;5.740;2023-09-18T13:44:09;4.50;;;1.93;;
5052;SDS011;2545;50.892;5.740;2023-09-18T13:46:35;5.60;;;2.20;;
5052;SDS011;2545;50.892;5.740;2023-09-18T13:49:04;5.30;;;2.23;;
5052;SDS011;2545;50.892;5.740;2023-09-18T13:51:30;4.07;;;1.70;;
5052;SDS011;2545;50.892;5.740;2023-09-18T13:53:57;5.60;;;2.40;;
5052;SDS011;2545;50.892;5.740;2023-09-18T13:56:22;2.27;;;1.50;;
5052;SDS011;2545;50.892;5.740;2023-09-18T13:58:50;2.10;;;1.83;;
5052;SDS011;2545;50.892;5.740;2023-09-18T14:01:15;5.00;;;1.97;;
5052;SDS011;2545;50.892;5.740;2023-09-18T14:03:41;3.07;;;2.10;;
5052;SDS011;2545;50.892;5.740;2023-09-18T14:06:08;6.50;;;2.07;;
5052;SDS011;2545;50.892;5.740;2023-09-18T14:08:34;3.73;;;2.60;;
5052;SDS011;2545;50.892;5.740;2023-09-18T14:10:59;3.40;;;2.03;;
5052;SDS011;2545;50.892;5.740;2023-09-18T14:13:25;3.73;;;2.20;;
5052;SDS011;2545;50.892;5.740;2023-09-18T14:15:50;4.57;;;2.40;;
5052;SDS011;2545;50.892;5.740;2023-09-18T14:18:15;5.37;;;2.17;;
5052;SDS011;2545;50.892;5.740;2023-09-18T14:20:41;4.17;;;2.03;;
5052;SDS011;2545;50.892;5.740;2023-09-18T14:23:06;4.50;;;1.80;;
5052;SDS011;2545;50.892;5.740;2023-09-18T14:25:32;7.13;;;2.20;;
5052;SDS011;2545;50.892;5.740;2023-09-18T14:27:58;3.77;;;1.80;;
5052;SDS011;2545;50.892;5.740;2023-09-18T14:30:23;7.07;;;2.30;;
5052;SDS011;2545;50.892;5.740;2023-09-18T14:32:54;14.53;;;2.17;;
5052;SDS011;2545;50.892;5.740;2023-09-18T14:35:20;5.17;;;2.20;;
5052;SDS011;2545;50.892;5.740;2023-09-18T14:37:45;3.77;;;1.87;;
5052;SDS011;2545;50.892;5.740;2023-09-18T14:40:10;3.30;;;2.10;;
5052;SDS011;2545;50.892;5.740;2023-09-18T14:42:36;2.30;;;1.80;;
5052;SDS011;2545;50.892;5.740;2023-09-18T14:45:02;4.03;;;2.50;;
5052;SDS011;2545;50.892;5.740;2023-09-18T14:47:28;3.33;;;1.90;;
5052;SDS011;2545;50.892;5.740;2023-09-18T14:49:53;2.20;;;1.97;;
5052;SDS011;2545;50.892;5.740;2023-09-18T14:52:19;2.47;;;1.90;;
5052;SDS011;2545;50.892;5.740;2023-09-18T14:54:47;4.00;;;2.13;;
5052;SDS011;2545;50.892;5.740;2023-09-18T14:57:14;2.40;;;1.77;;
5052;SDS011;2545;50.892;5.740;2023-09-18T14:59:39;6.70;;;2.20;;
5052;SDS011;2545;50.892;5.740;2023-09-18T15:02:07;5.53;;;2.40;;
5052;SDS011;2545;50.892;5.740;2023-09-18T15:04:33;2.83;;;1.97;;
5052;SDS011;2545;50.892;5.740;2023-09-18T15:06:59;2.77;;;2.10;;
5052;SDS011;2545;50.892;5.740;2023-09-18T15:09:24;4.50;;;2.47;;
5052;SDS011;2545;50.892;5.740;2023-09-18T15:11:50;5.50;;;2.63;;
5052;SDS011;2545;50.892;5.740;2023-09-18T15:14:15;4.60;;;2.23;;
5052;SDS011;2545;50.892;5.740;2023-09-18T15:16:40;5.40;;;2.50;;
5052;SDS011;2545;50.892;5.740;2023-09-18T15:19:06;8.23;;;2.40;;
5052;SDS011;2545;50.892;5.740;2023-09-18T15:21:31;4.53;;;2.23;;
5052;SDS011;2545;50.892;5.740;2023-09-18T15:23:56;4.13;;;2.43;;